createdAt,value
2022-10-29T00:03:00.238Z,1.83
2022-10-29T00:08:02.295Z,7.18
2022-10-29T00:13:04.537Z,4.60
2022-10-29T00:18:06.323Z,7.85
2022-10-29T00:23:08.217Z,3.65
2022-10-29T00:28:10.030Z,11.32
2022-10-29T00:33:13.121Z,4.03
2022-10-29T00:38:15.042Z,4.10
2022-10-29T00:43:19.391Z,4.50
2022-10-29T00:48:23.774Z,3.72
2022-10-29T00:53:28.842Z,5.28
2022-10-29T00:58:30.957Z,12.68
2022-10-29T01:03:33.187Z,8.00
2022-10-29T01:08:35.383Z,2.00
2022-10-29T01:14:11.335Z,7.95
2022-10-29T01:19:26.603Z,10.98
2022-10-29T01:24:57.544Z,12.32
2022-10-29T01:30:24.312Z,3.50
2022-10-29T01:35:35.200Z,10.82
2022-10-29T01:40:46.927Z,3.65
2022-10-29T01:45:56.623Z,5.35
2022-10-29T01:51:03.843Z,7.13
2022-10-29T01:56:05.999Z,8.43
2022-10-29T02:01:32.397Z,3.95
2022-10-29T02:06:58.414Z,1.98
2022-10-29T02:12:03.134Z,3.08
2022-10-29T02:17:06.472Z,8.60
2022-10-29T02:22:08.202Z,5.20
2022-10-29T02:27:10.030Z,6.10
2022-10-29T02:32:12.964Z,3.60
2022-10-29T02:37:14.843Z,9.30
2022-10-29T02:42:17.243Z,4.40
2022-10-29T02:47:19.131Z,5.60
2022-10-29T02:52:20.960Z,6.22
2022-10-29T02:57:22.762Z,6.63
2022-10-29T03:02:24.689Z,5.38
2022-10-29T03:07:26.703Z,5.93
2022-10-29T03:12:28.528Z,12.25
2022-10-29T03:17:30.406Z,9.80
2022-10-29T03:22:32.296Z,5.57
2022-10-29T03:27:42.195Z,5.75
2022-10-29T03:32:45.662Z,4.90
2022-10-29T03:37:52.006Z,2.85
2022-10-29T03:42:54.223Z,11.52
2022-10-29T03:47:57.646Z,7.03
2022-10-29T03:52:59.968Z,7.75
2022-10-29T03:58:01.824Z,6.95
2022-10-29T04:03:04.960Z,8.57
2022-10-29T04:08:06.843Z,5.65
2022-10-29T04:13:08.678Z,7.68
2022-10-29T04:18:11.562Z,6.00
2022-10-29T04:27:07.989Z,3.45
2022-10-29T04:28:43.051Z,4.80
2022-10-29T04:33:46.375Z,3.83
2022-10-29T04:38:48.175Z,4.50
2022-10-29T04:43:49.999Z,5.30
2022-10-29T04:48:51.915Z,5.95
2022-10-29T04:53:53.851Z,6.70
2022-10-29T04:58:55.669Z,3.83
2022-10-29T05:04:00.000Z,4.75
2022-10-29T05:09:02.378Z,7.72
2022-10-29T05:14:04.222Z,5.15
2022-10-29T05:19:06.767Z,9.80
2022-10-29T05:24:08.723Z,5.13
2022-10-29T05:29:10.541Z,12.55
2022-10-29T05:34:12.558Z,6.47
2022-10-29T05:39:14.470Z,7.97
2022-10-29T05:44:16.294Z,14.27
2022-10-29T05:49:18.128Z,17.05
2022-10-29T05:54:19.933Z,7.82
2022-10-29T05:59:21.783Z,6.07
2022-10-29T06:04:23.786Z,5.85
2022-10-29T06:09:25.616Z,8.95
2022-10-29T06:14:27.484Z,5.05
2022-10-29T06:19:29.332Z,9.65
2022-10-29T06:24:31.222Z,12.98
2022-10-29T06:29:32.996Z,10.40
2022-10-29T06:34:34.729Z,11.20
2022-10-29T06:39:36.588Z,6.70
2022-10-29T06:44:38.430Z,10.68
2022-10-29T06:49:40.191Z,8.00
2022-10-29T06:54:41.905Z,7.35
2022-10-29T06:59:44.342Z,14.82
2022-10-29T07:04:46.350Z,13.80
2022-10-29T07:09:48.204Z,10.43
2022-10-29T07:14:49.963Z,8.18
2022-10-29T07:19:51.819Z,8.82
2022-10-29T07:24:55.890Z,9.90
2022-10-29T07:30:00.407Z,12.27
2022-10-29T07:35:02.381Z,16.58
2022-10-29T07:40:05.194Z,13.70
2022-10-29T07:45:07.351Z,7.53
2022-10-29T07:50:09.789Z,14.90
2022-10-29T07:55:11.633Z,13.50
2022-10-29T08:00:14.940Z,4.88
2022-10-29T08:05:18.150Z,14.45
2022-10-29T08:10:20.033Z,10.23
2022-10-29T08:15:23.581Z,6.63
2022-10-29T08:20:28.881Z,7.10
2022-10-29T08:25:30.749Z,8.52
2022-10-29T08:30:32.606Z,16.48
2022-10-29T08:35:34.919Z,10.32
2022-10-29T08:41:05.675Z,10.73
2022-10-29T08:46:24.183Z,9.10
2022-10-29T08:51:28.655Z,8.02
2022-10-29T08:56:34.593Z,7.93
2022-10-29T09:01:37.182Z,9.77
2022-10-29T09:06:55.058Z,6.90
2022-10-29T09:12:02.727Z,9.45
2022-10-29T09:22:27.082Z,5.75
2022-10-29T09:27:53.851Z,9.25
2022-10-29T09:33:07.349Z,11.90
2022-10-29T09:38:19.581Z,6.75
2022-10-29T09:43:34.468Z,9.65
2022-10-29T09:48:54.179Z,14.05
2022-10-29T09:53:56.210Z,11.98
2022-10-29T09:59:13.453Z,10.68
2022-10-29T10:04:37.459Z,6.65
2022-10-29T10:09:55.733Z,17.42
2022-10-29T10:15:20.367Z,11.32
2022-10-29T10:20:33.397Z,15.73
2022-10-29T10:25:39.897Z,12.88
2022-10-29T10:30:43.376Z,11.02
2022-10-29T10:35:45.383Z,13.43
2022-10-29T10:41:08.868Z,15.13
2022-10-29T10:46:31.590Z,17.20
2022-10-29T10:51:36.268Z,16.27
2022-10-29T10:57:02.247Z,14.48
2022-10-29T11:02:05.274Z,12.57
2022-10-29T11:07:11.328Z,13.32
2022-10-29T11:12:34.425Z,16.90
2022-10-29T11:17:41.902Z,13.70
2022-10-29T11:22:50.166Z,14.35
2022-10-29T11:28:24.194Z,13.85
2022-10-29T11:33:39.230Z,12.73
2022-10-29T11:38:50.722Z,12.93
2022-10-29T11:43:52.892Z,14.65
2022-10-29T11:49:12.886Z,15.05
2022-10-29T11:54:35.794Z,12.88
2022-10-29T11:59:43.273Z,15.73
2022-10-29T12:04:51.232Z,13.70
2022-10-29T12:10:34.301Z,16.10
2022-10-29T12:15:47.291Z,17.35
2022-10-29T12:21:03.101Z,12.57
2022-10-29T12:26:04.902Z,13.23
2022-10-29T12:31:10.722Z,25.05
2022-10-29T12:36:24.685Z,27.25
2022-10-29T12:41:32.536Z,17.75
2022-10-29T12:46:48.347Z,21.52
2022-10-29T12:57:14.581Z,25.73
2022-10-29T13:02:46.240Z,17.80
2022-10-29T13:07:48.297Z,27.25
2022-10-29T13:12:55.592Z,19.67
2022-10-29T13:18:04.922Z,18.10
2022-10-29T13:23:22.007Z,29.48
2022-10-29T13:28:23.811Z,29.43
2022-10-29T13:33:28.549Z,28.10
2022-10-29T13:38:38.186Z,25.83
2022-10-29T13:44:00.187Z,20.25
2022-10-29T13:49:10.175Z,22.38
2022-10-29T13:59:43.625Z,20.65
2022-10-29T14:04:51.036Z,20.17
2022-10-29T14:09:56.963Z,24.73
2022-10-29T14:15:11.807Z,18.00
2022-10-29T14:20:26.722Z,19.55
2022-10-29T14:25:35.760Z,21.63
2022-10-29T14:30:37.660Z,18.27
2022-10-29T14:35:39.781Z,18.33
2022-10-29T14:40:44.964Z,14.80
2022-10-29T14:45:47.154Z,20.00
2022-10-29T14:50:51.569Z,17.95
2022-10-29T14:55:53.667Z,20.23
2022-10-29T15:01:01.972Z,25.33
2022-10-29T15:06:30.133Z,16.77
2022-10-29T15:11:36.642Z,19.85
2022-10-29T15:16:41.560Z,18.92
2022-10-29T15:21:45.108Z,22.77
2022-10-29T15:26:57.147Z,21.90
2022-10-29T15:31:59.263Z,20.08
2022-10-29T15:37:19.126Z,21.63
2022-10-29T15:42:22.983Z,21.88
2022-10-29T15:47:28.468Z,16.48
2022-10-29T15:52:38.045Z,16.00
2022-10-29T15:57:40.607Z,17.27
2022-10-29T16:02:42.657Z,19.75
2022-10-29T16:07:47.136Z,18.48
2022-10-29T16:12:49.964Z,21.02
2022-10-29T16:17:51.863Z,20.73
2022-10-29T16:22:53.727Z,16.10
2022-10-29T16:27:56.214Z,22.65
2022-10-29T16:33:00.934Z,24.38
2022-10-29T16:38:03.351Z,20.25
2022-10-29T16:43:05.573Z,23.67
2022-10-29T16:48:07.411Z,20.85
2022-10-29T16:53:11.211Z,22.50
2022-10-29T16:58:15.283Z,16.75
2022-10-29T17:03:18.167Z,21.42
2022-10-29T17:08:20.650Z,22.23
2022-10-29T17:13:22.445Z,17.60
2022-10-29T17:18:24.826Z,14.40
2022-10-29T17:23:26.922Z,20.20
2022-10-29T17:28:29.232Z,24.92
2022-10-29T17:33:31.062Z,21.67
2022-10-29T17:38:32.895Z,23.88
2022-10-29T17:43:34.726Z,21.00
2022-10-29T17:48:36.929Z,21.08
2022-10-29T17:53:39.347Z,18.95
2022-10-29T17:58:41.197Z,25.60
2022-10-29T18:03:43.435Z,21.13
2022-10-29T18:08:45.322Z,25.25
2022-10-29T18:13:49.027Z,25.95
2022-10-29T18:19:02.187Z,22.00
2022-10-29T18:24:05.554Z,29.05
2022-10-29T18:29:12.359Z,21.27
2022-10-29T18:34:15.376Z,20.00
2022-10-29T18:39:17.377Z,16.15
2022-10-29T18:44:19.219Z,16.95
2022-10-29T18:49:21.421Z,18.50
2022-10-29T18:54:23.361Z,21.67
2022-10-29T18:59:25.281Z,23.42
2022-10-29T19:04:27.203Z,22.85
2022-10-29T19:09:32.549Z,17.70
2022-10-29T19:14:34.378Z,21.42
2022-10-29T19:19:36.478Z,17.92
2022-10-29T19:24:38.293Z,17.98
2022-10-29T19:29:40.167Z,10.95
2022-10-29T19:34:42.110Z,11.45
2022-10-29T19:39:43.926Z,15.30
2022-10-29T19:44:45.699Z,9.55
2022-10-29T19:49:47.459Z,12.60
2022-10-29T19:54:49.220Z,11.48
2022-10-29T19:59:50.960Z,11.40
2022-10-29T20:04:52.773Z,8.65
2022-10-29T20:09:54.578Z,9.77
2022-10-29T20:14:56.453Z,8.00
2022-10-29T20:19:58.253Z,9.93
2022-10-29T20:24:59.986Z,9.40
2022-10-29T20:30:01.796Z,16.70
2022-10-29T20:35:03.776Z,6.95
2022-10-29T20:40:06.067Z,12.65
2022-10-29T20:45:08.472Z,8.00
2022-10-29T20:50:10.197Z,13.40
2022-10-29T20:55:12.392Z,13.23
2022-10-29T21:00:14.547Z,7.05
2022-10-29T21:05:16.308Z,7.30
2022-10-29T21:10:18.117Z,4.90
2022-10-29T21:15:20.041Z,10.25
2022-10-29T21:20:27.352Z,5.72
2022-10-29T21:25:29.423Z,6.53
2022-10-29T21:30:32.057Z,8.38
2022-10-29T21:35:33.874Z,9.27
2022-10-29T21:40:35.606Z,13.20
2022-10-29T21:45:37.364Z,7.18
2022-10-29T21:50:39.722Z,7.10
2022-10-29T21:55:41.504Z,8.07
2022-10-29T22:00:43.250Z,4.70
2022-10-29T22:05:45.033Z,4.57
2022-10-29T22:10:46.858Z,7.40
2022-10-29T22:15:48.639Z,10.25
2022-10-29T22:20:50.504Z,6.22
2022-10-29T22:25:52.372Z,2.50
2022-10-29T22:30:59.362Z,10.20
2022-10-29T22:36:05.663Z,12.90
2022-10-29T22:41:10.207Z,3.78
2022-10-29T22:46:14.826Z,15.48
2022-10-29T22:51:22.642Z,7.32
2022-10-29T22:56:25.676Z,4.85
2022-10-29T23:01:30.165Z,6.45
2022-10-29T23:06:32.520Z,4.63
2022-10-29T23:11:41.489Z,5.05
2022-10-29T23:16:43.362Z,10.65
2022-10-29T23:21:45.436Z,4.93
2022-10-29T23:26:47.323Z,6.15
2022-10-29T23:31:49.173Z,5.38
2022-10-29T23:41:57.911Z,3.58
2022-10-29T23:46:59.823Z,6.18
2022-10-29T23:52:01.630Z,7.30
2022-10-29T23:57:03.582Z,7.30
